Time;durP1;ratioP1;P1;durP2;ratioP2;P2;SDS_P1;SDS_P2;PMS_P1;PMS_P2;Temp;Humidity;BMP_temperature;BMP_pressure;BME280_temperature;BME280_humidity;BME280_pressure;Samples;Min_cycle;Max_cycle;Signal;HPM_P1;HPM_P2
2022/07/30 00:00:47;;;;;;;8.70;6.83;;;;;;;17.56;79.85;97077.96;1824037;78;27531;-78
2022/07/30 00:03:14;;;;;;;7.85;7.15;;;;;;;17.56;79.91;97070.59;1801490;79;25672;-81
2022/07/30 00:05:40;;;;;;;9.18;7.60;;;;;;;17.56;79.92;97063.77;1769954;81;25663;-78
2022/07/30 00:08:07;;;;;;;9.38;6.83;;;;;;;17.57;79.98;97058.59;1801745;78;25973;-78
2022/07/30 00:10:34;;;;;;;10.15;7.90;;;;;;;17.55;80.03;97066.22;1769695;80;25674;-78
2022/07/30 00:13:00;;;;;;;8.50;7.47;;;;;;;17.54;80.03;97061.02;1801900;79;27400;-81
2022/07/30 00:15:27;;;;;;;7.83;6.85;;;;;;;17.55;80.12;97049.84;1770051;80;25212;-77
2022/07/30 00:17:53;;;;;;;9.78;7.83;;;;;;;17.55;80.14;97044.93;1801712;79;25749;-79
2022/07/30 00:20:20;;;;;;;7.95;7.22;;;;;;;17.54;80.18;97049.56;1770196;80;26736;-78
2022/07/30 00:22:46;;;;;;;8.38;7.05;;;;;;;17.55;80.14;97053.94;1801854;79;25420;-79
2022/07/30 00:25:13;;;;;;;9.38;7.35;;;;;;;17.50;80.21;97042.19;1770128;80;27430;-78
2022/07/30 00:27:40;;;;;;;14.15;7.55;;;;;;;17.50;80.28;97038.09;1823988;78;25694;-80
2022/07/30 00:30:08;;;;;;;7.80;6.95;;;;;;;17.54;80.29;97044.11;1801845;79;26447;-78
2022/07/30 00:32:34;;;;;;;8.05;7.00;;;;;;;17.52;80.33;97039.45;1823912;78;25987;-81
2022/07/30 00:35:01;;;;;;;8.43;7.08;;;;;;;17.52;80.36;97038.09;1801726;79;25617;-79
2022/07/30 00:37:27;;;;;;;9.45;6.95;;;;;;;17.48;80.32;97027.45;1770178;80;28269;-79
2022/07/30 00:39:54;;;;;;;8.25;6.83;;;;;;;17.47;80.39;97020.34;1801686;79;26433;-81
2022/07/30 00:42:24;;;;;;;7.78;7.08;;;;;;;17.47;80.46;97008.06;1770112;80;25722;-81
2022/07/30 00:44:48;;;;;;;7.75;6.80;;;;;;;17.49;80.48;97004.53;1819713;78;25746;-80
2022/07/30 00:47:15;;;;;;;8.68;7.00;;;;;;;17.51;80.52;97001.54;1802064;79;25705;-80
2022/07/30 00:49:41;;;;;;;8.28;6.72;;;;;;;17.54;80.50;96997.72;1770061;79;27645;-79
2022/07/30 00:52:09;;;;;;;7.37;6.78;;;;;;;17.56;80.52;96994.73;1801501;79;25631;-78
2022/07/30 00:54:36;;;;;;;8.45;6.90;;;;;;;17.55;80.52;96983.53;1770041;81;25248;-78
2022/07/30 00:57:02;;;;;;;9.70;6.67;;;;;;;17.56;80.51;96980.54;1801972;79;25969;-78
2022/07/30 00:59:30;;;;;;;8.00;7.17;;;;;;;17.58;80.52;96981.64;1769999;81;25675;-79
2022/07/30 01:02:00;;;;;;;10.48;6.70;;;;;;;17.56;80.52;96974.26;1801747;79;27378;-78
2022/07/30 01:04:25;;;;;;;9.93;6.60;;;;;;;17.56;80.58;96979.72;1769801;79;25807;-78
2022/07/30 01:06:51;;;;;;;7.90;6.50;;;;;;;17.54;80.59;96979.98;1801761;78;25769;-77
2022/07/30 01:09:18;;;;;;;10.25;6.80;;;;;;;17.54;80.59;96984.07;1769881;79;26586;-78
2022/07/30 01:11:44;;;;;;;7.60;6.85;;;;;;;17.56;80.65;96987.91;1801809;79;25918;-78
2022/07/30 01:14:11;;;;;;;7.42;6.72;;;;;;;17.56;80.62;96983.27;1770087;80;28041;-79
2022/07/30 01:16:41;;;;;;;11.88;7.15;;;;;;;17.53;80.62;96978.34;1823992;78;25805;-79
2022/07/30 01:22:30;;;;;;;7.87;6.65;;;;;;;17.52;80.73;96963.05;1787818;79;26563;-81
2022/07/30 01:25:27;;;;;;;7.15;6.40;;;;;;;17.53;80.79;96966.05;1787567;80;26024;-78
2022/07/30 01:28:10;;;;;;;7.67;6.85;;;;;;;17.53;80.83;96963.87;1787842;80;28200;-80
2022/07/30 01:30:41;;;;;;;8.45;6.30;;;;;;;17.52;80.87;96968.50;1787755;80;26324;-79
2022/07/30 01:33:11;;;;;;;7.83;6.35;;;;;;;17.53;80.88;96972.88;1769643;81;25789;-78
2022/07/30 01:35:41;;;;;;;9.60;6.58;;;;;;;17.54;80.87;96975.06;1744032;81;26031;-79
2022/07/30 01:38:10;;;;;;;7.22;6.60;;;;;;;17.49;80.84;96975.87;1769905;80;25785;-78
2022/07/30 01:40:38;;;;;;;8.30;6.72;;;;;;;17.47;80.92;96976.69;1778188;80;28108;-81
2022/07/30 01:43:07;;;;;;;8.60;6.60;;;;;;;17.46;80.97;96973.67;1777960;80;25305;-78
2022/07/30 01:45:35;;;;;;;8.73;7.00;;;;;;;17.46;81.00;96977.77;1778124;80;25767;-79
2022/07/30 01:48:05;;;;;;;10.15;6.70;;;;;;;17.47;81.06;96973.95;1778157;80;25940;-80
2022/07/30 01:50:33;;;;;;;10.65;7.55;;;;;;;17.48;81.06;96978.88;1778073;80;26154;-78
2022/07/30 01:53:00;;;;;;;7.83;7.12;;;;;;;17.44;81.05;96969.02;1778557;80;28051;-78
2022/07/30 01:55:36;;;;;;;10.30;7.53;;;;;;;17.42;81.15;96971.19;1778175;80;25670;-80
2022/07/30 01:58:05;;;;;;;8.68;7.95;;;;;;;17.42;81.25;96971.19;1776373;80;25734;-78
2022/07/30 02:00:37;;;;;;;11.55;8.23;;;;;;;17.42;81.24;96959.45;1715700;82;26112;-78
2022/07/30 02:03:07;;;;;;;12.25;7.75;;;;;;;17.41;81.27;96957.81;1716011;82;25777;-78
2022/07/30 02:05:36;;;;;;;12.47;8.23;;;;;;;17.40;81.31;96963.81;1726615;81;27475;-78
2022/07/30 02:08:23;;;;;;;9.23;7.72;;;;;;;17.38;81.33;96959.19;1726255;82;25934;-79
2022/07/30 02:11:03;;;;;;;9.90;7.90;;;;;;;17.39;81.36;96955.34;1691447;84;25744;-80
2022/07/30 02:13:32;;;;;;;8.25;7.50;;;;;;;17.40;81.42;96961.08;1689696;84;26105;-79
2022/07/30 02:16:09;;;;;;;9.23;8.05;;;;;;;17.41;81.45;96959.17;1691691;84;25845;-78
2022/07/30 02:18:44;;;;;;;8.25;7.25;;;;;;;17.41;81.45;96957.81;1708513;83;27582;-78
2022/07/30 02:21:12;;;;;;;8.70;7.75;;;;;;;17.42;81.45;96958.91;1631647;86;25920;-80
2022/07/30 02:23:43;;;;;;;10.70;7.50;;;;;;;17.43;81.45;96953.73;1635088;87;25767;-78
2022/07/30 02:26:17;;;;;;;7.75;6.72;;;;;;;17.45;81.46;96951.56;1635418;86;26003;-79
2022/07/30 02:28:47;;;;;;;9.23;8.05;;;;;;;17.45;81.47;96944.75;1635341;87;25963;-78
2022/07/30 02:31:18;;;;;;;7.80;7.12;;;;;;;17.46;81.47;96942.30;1607144;87;28272;-78
2022/07/30 02:33:49;;;;;;;8.80;7.83;;;;;;;17.47;81.46;96938.48;1606887;88;25812;-78
2022/07/30 02:36:17;;;;;;;9.68;7.33;;;;;;;17.48;81.45;96935.21;1606675;88;25707;-78
2022/07/30 02:38:45;;;;;;;8.03;7.03;;;;;;;17.45;81.41;96939.83;1606798;88;26997;-79
2022/07/30 02:41:13;;;;;;;9.78;7.45;;;;;;;17.42;81.46;96941.18;1606914;88;25800;-79
2022/07/30 02:43:41;;;;;;;8.00;6.67;;;;;;;17.42;81.49;96932.99;1606923;88;28244;-80
2022/07/30 02:46:10;;;;;;;8.08;7.28;;;;;;;17.43;81.49;96934.64;1606842;88;25927;-78
2022/07/30 02:48:39;;;;;;;10.10;7.22;;;;;;;17.41;81.51;96931.89;1606823;88;25999;-78
2022/07/30 02:51:08;;;;;;;7.83;7.12;;;;;;;17.42;81.54;96935.72;1606760;88;26043;-78
2022/07/30 02:53:36;;;;;;;7.60;6.90;;;;;;;17.41;81.51;96933.25;1606967;88;25851;-79
2022/07/30 02:56:06;;;;;;;8.35;7.55;;;;;;;17.36;81.53;96924.52;1606705;88;27408;-78
2022/07/30 02:58:36;;;;;;;7.55;6.85;;;;;;;17.34;81.58;96923.97;1765899;77;25741;-78
2022/07/30 03:01:04;;;;;;;8.30;7.50;;;;;;;17.36;81.69;96919.06;1844697;77;25686;-78
2022/07/30 03:03:31;;;;;;;9.28;7.28;;;;;;;17.37;81.71;96912.53;1844564;77;26055;-79
2022/07/30 03:05:59;;;;;;;13.38;8.00;;;;;;;17.39;81.73;96909.53;1844520;77;25743;-80
2022/07/30 03:08:28;;;;;;;9.20;8.30;;;;;;;17.39;81.67;96915.78;1844552;76;27465;-82
2022/07/30 03:10:55;;;;;;;11.60;8.20;;;;;;;17.40;81.71;96918.79;1844216;77;25719;-82
2022/07/30 03:13:23;;;;;;;9.78;8.53;;;;;;;17.41;81.74;96911.43;1844605;77;25751;-80
2022/07/30 03:15:52;;;;;;;9.50;7.25;;;;;;;17.42;81.72;96907.61;1844660;77;26050;-78
2022/07/30 03:18:21;;;;;;;13.32;8.40;;;;;;;17.42;81.71;96909.80;1844487;76;25741;-79
2022/07/30 03:20:54;;;;;;;9.03;7.78;;;;;;;17.40;81.70;96902.42;1844549;77;27604;-79
2022/07/30 03:23:23;;;;;;;8.93;7.60;;;;;;;17.42;81.77;96917.16;1844090;77;25838;-79
2022/07/30 03:26:00;;;;;;;9.70;8.10;;;;;;;17.41;81.73;96916.88;1844595;77;25752;-78
2022/07/30 03:28:33;;;;;;;12.13;8.68;;;;;;;17.39;81.80;96917.14;1755420;79;25983;-78
2022/07/30 03:31:00;;;;;;;12.70;8.70;;;;;;;17.42;81.83;96926.17;1755441;81;25916;-80
2022/07/30 03:33:28;;;;;;;10.50;8.45;;;;;;;17.44;81.83;96928.09;1755164;81;27547;-79
2022/07/30 03:35:55;;;;;;;10.45;8.60;;;;;;;17.47;81.83;96943.94;1755111;81;25853;-78
2022/07/30 03:38:22;;;;;;;12.98;8.63;;;;;;;17.48;81.83;96945.59;1755435;81;25975;-78
2022/07/30 03:40:50;;;;;;;9.50;8.45;;;;;;;17.49;81.79;96949.96;1755319;81;25983;-78
2022/07/30 03:43:17;;;;;;;11.95;7.95;;;;;;;17.46;81.75;96946.39;1755330;79;25754;-78
2022/07/30 03:45:45;;;;;;;15.18;8.63;;;;;;;17.44;81.84;96943.10;1755448;81;27068;-79
2022/07/30 03:48:12;;;;;;;9.73;8.40;;;;;;;17.44;81.90;96949.92;1755364;81;25723;-79
2022/07/30 03:50:41;;;;;;;10.75;8.08;;;;;;;17.44;81.90;96944.47;1755207;81;37400;-79
2022/07/30 03:53:10;;;;;;;11.10;8.68;;;;;;;17.45;81.96;96949.38;1755240;81;26098;-77
2022/07/30 03:55:37;;;;;;;10.00;9.00;;;;;;;17.46;81.98;96960.03;1755485;81;25702;-78
2022/07/30 03:58:08;;;;;;;10.65;9.25;;;;;;;17.46;82.00;96958.67;1755590;80;27447;-78
2022/07/30 04:00:35;;;;;;;9.68;8.75;;;;;;;17.48;82.02;96964.69;1755519;81;25718;-79
2022/07/30 04:03:01;;;;;;;12.47;9.20;;;;;;;17.49;82.00;96965.51;1755412;81;25692;-79
2022/07/30 04:05:28;;;;;;;10.93;9.53;;;;;;;17.48;82.05;96971.51;1755616;81;26026;-79
2022/07/30 04:07:54;;;;;;;11.70;8.80;;;;;;;17.52;82.08;96977.23;1755546;81;25770;-78
2022/07/30 04:10:21;;;;;;;10.45;9.45;;;;;;;17.49;82.10;96969.06;1755239;79;28203;-80
2022/07/30 04:12:47;;;;;;;13.62;10.65;;;;;;;17.52;82.09;96971.23;1755516;81;25886;-79
2022/07/30 04:15:14;;;;;;;12.40;10.93;;;;;;;17.53;82.11;96976.97;1755350;81;25916;-78
2022/07/30 04:17:55;;;;;;;14.38;12.53;;;;;;;17.47;82.19;96967.13;1755493;81;26898;-80
2022/07/30 04:20:26;;;;;;;12.98;11.68;;;;;;;17.44;82.19;96964.93;1752420;81;25703;-78
2022/07/30 04:22:54;;;;;;;17.47;12.17;;;;;;;17.46;82.28;96970.13;1755657;81;26811;-78
2022/07/30 04:25:21;;;;;;;12.58;9.60;;;;;;;17.47;82.30;96968.50;1818156;77;25570;-80
2022/07/30 04:27:48;;;;;;;10.53;9.55;;;;;;;17.50;82.28;96967.97;1844800;77;25817;-79
2022/07/30 04:30:15;;;;;;;10.13;9.33;;;;;;;17.52;82.26;96969.87;1844628;77;26620;-78
2022/07/30 04:32:43;;;;;;;13.38;10.70;;;;;;;17.51;82.33;96965.49;1844655;77;25772;-80
2022/07/30 04:35:09;;;;;;;13.70;10.53;;;;;;;17.48;82.31;96961.14;1844648;77;28201;-80
2022/07/30 04:37:36;;;;;;;11.10;10.10;;;;;;;17.48;82.31;96964.69;1844344;77;25687;-79
2022/07/30 04:40:03;;;;;;;12.20;10.53;;;;;;;17.52;82.33;96967.69;1844814;77;25728;-79
2022/07/30 04:42:30;;;;;;;10.80;9.80;;;;;;;17.53;82.40;96961.96;1844618;77;26056;-80
2022/07/30 04:44:58;;;;;;;11.25;9.98;;;;;;;17.51;82.46;96964.70;1844729;77;25645;-80
2022/07/30 04:47:24;;;;;;;10.10;9.10;;;;;;;17.50;82.50;96968.52;1844712;77;27361;-80
2022/07/30 04:49:53;;;;;;;10.85;8.53;;;;;;;17.52;82.61;96970.41;1844615;77;25679;-81
2022/07/30 04:52:21;;;;;;;11.73;9.05;;;;;;;17.50;82.55;96969.34;1844756;77;25565;-78
2022/07/30 04:54:56;;;;;;;10.72;8.28;;;;;;;17.52;82.62;96974.50;1844708;77;26123;-76
2022/07/30 04:57:25;;;;;;;13.10;8.75;;;;;;;17.54;82.68;96974.52;1842197;77;25718;-78
2022/07/30 04:59:51;;;;;;;12.95;8.63;;;;;;;17.60;82.71;96973.47;1844839;77;28036;-77
2022/07/30 05:02:20;;;;;;;12.07;8.53;;;;;;;17.64;82.72;96969.67;1844545;77;25859;-79
2022/07/30 05:04:48;;;;;;;10.98;8.50;;;;;;;17.63;82.78;96970.22;1844735;77;25652;-77
2022/07/30 05:07:16;;;;;;;9.48;7.85;;;;;;;17.66;82.84;96969.41;1844741;77;26090;-77
2022/07/30 05:09:43;;;;;;;11.28;8.30;;;;;;;17.67;82.87;96975.98;1848886;76;25862;-78
2022/07/30 05:12:10;;;;;;;9.95;8.70;;;;;;;17.71;82.95;96977.09;1865516;76;27447;-77
2022/07/30 05:14:36;;;;;;;13.68;8.38;;;;;;;17.76;83.02;96979.00;1865816;76;26254;-77
2022/07/30 05:17:03;;;;;;;9.63;8.73;;;;;;;17.81;83.10;96974.94;1865626;76;25760;-78
2022/07/30 05:19:30;;;;;;;12.25;8.65;;;;;;;17.85;83.13;96972.78;1865706;76;26037;-77
2022/07/30 05:21:56;;;;;;;11.60;9.20;;;;;;;17.90;83.24;96965.13;1866196;76;25742;-77
2022/07/30 05:24:23;;;;;;;10.68;8.30;;;;;;;17.92;83.21;96967.05;1857056;76;27310;-77
2022/07/30 05:26:49;;;;;;;13.38;8.43;;;;;;;17.96;83.24;96964.08;1856846;77;25687;-77
2022/07/30 05:29:16;;;;;;;10.13;8.78;;;;;;;18.00;83.27;96963.80;1856997;77;25727;-77
2022/07/30 05:31:43;;;;;;;8.55;7.75;;;;;;;18.07;83.31;96964.38;1856849;77;26307;-77
2022/07/30 05:34:09;;;;;;;9.45;8.43;;;;;;;18.10;83.30;96967.12;1857026;77;25637;-77
2022/07/30 05:36:36;;;;;;;9.50;8.48;;;;;;;18.13;83.27;96960.55;1856831;77;27962;-78
2022/07/30 05:39:03;;;;;;;8.75;7.95;;;;;;;18.17;83.18;96961.66;1856405;77;26191;-77
2022/07/30 05:41:29;;;;;;;10.30;7.35;;;;;;;18.23;83.15;96968.75;1856799;77;25727;-77
2022/07/30 05:43:56;;;;;;;9.83;7.58;;;;;;;18.28;83.08;96970.69;1856855;77;26748;-76
2022/07/30 05:46:23;;;;;;;8.88;7.20;;;;;;;18.32;83.00;96975.35;1856825;76;26848;-77
2022/07/30 05:48:49;;;;;;;9.18;7.45;;;;;;;18.34;82.91;96968.25;1856502;77;28028;-76
2022/07/30 05:51:17;;;;;;;8.28;7.50;;;;;;;18.38;82.88;96971.24;1856315;77;25690;-77
2022/07/30 05:53:44;;;;;;;11.45;7.42;;;;;;;18.41;82.84;96970.70;1856492;77;25748;-76
2022/07/30 05:56:10;;;;;;;8.38;7.22;;;;;;;18.44;82.73;96971.53;1856524;77;26269;-77
2022/07/30 05:58:37;;;;;;;7.53;6.85;;;;;;;18.45;82.66;96967.17;1856639;77;25568;-76
2022/07/30 06:01:03;;;;;;;8.08;6.87;;;;;;;18.48;82.52;96964.41;1856677;77;27409;-76
2022/07/30 06:03:30;;;;;;;8.88;7.65;;;;;;;18.48;82.43;96961.69;1856457;77;25701;-77
2022/07/30 06:05:56;;;;;;;8.68;7.87;;;;;;;18.52;82.38;96966.34;1856648;76;25692;-77
2022/07/30 06:08:23;;;;;;;10.72;9.40;;;;;;;18.54;82.36;96963.34;1856649;77;25947;-77
2022/07/30 06:10:49;;;;;;;12.30;9.80;;;;;;;18.57;82.52;96969.09;1856329;77;25704;-77
2022/07/30 06:13:16;;;;;;;12.90;9.65;;;;;;;18.61;82.54;96968.83;1856266;77;27515;-76
2022/07/30 06:15:42;;;;;;;9.90;8.90;;;;;;;18.65;82.63;96966.38;1856435;77;25708;-77
2022/07/30 06:18:09;;;;;;;8.90;8.05;;;;;;;18.70;82.61;96973.23;1856511;77;26771;-76
2022/07/30 06:20:35;;;;;;;9.33;8.43;;;;;;;18.73;82.53;96969.92;1856591;77;26034;-76
2022/07/30 06:23:02;;;;;;;8.95;8.15;;;;;;;18.76;82.37;96968.02;1856519;77;25839;-76
2022/07/30 06:25:28;;;;;;;9.73;8.73;;;;;;;18.76;82.18;96964.46;1856567;77;27349;-76
2022/07/30 06:27:55;;;;;;;9.65;8.65;;;;;;;18.80;82.22;96967.75;1856667;77;25651;-76
2022/07/30 06:30:21;;;;;;;11.10;8.48;;;;;;;18.88;82.26;96969.92;1856625;76;25731;-76
2022/07/30 06:32:48;;;;;;;10.25;8.45;;;;;;;18.94;82.30;96968.84;1856593;77;26785;-76
2022/07/30 06:35:14;;;;;;;8.90;8.05;;;;;;;19.01;82.50;96966.63;1856641;77;25654;-76
2022/07/30 06:37:41;;;;;;;9.28;8.30;;;;;;;19.06;82.44;96966.64;1856303;77;27345;-76
2022/07/30 06:40:10;;;;;;;9.28;8.33;;;;;;;19.16;82.43;96964.97;1856489;77;25710;-76
2022/07/30 06:42:36;;;;;;;9.63;8.50;;;;;;;19.23;82.28;96967.68;1856592;76;25677;-76
2022/07/30 06:45:03;;;;;;;8.63;7.70;;;;;;;19.31;82.13;96969.05;1856608;77;25918;-76
2022/07/30 06:47:30;;;;;;;8.83;7.62;;;;;;;19.38;82.04;96964.91;1856683;77;25713;-76
2022/07/30 06:49:57;;;;;;;13.60;7.97;;;;;;;19.43;81.94;96961.35;1856512;77;27353;-77
2022/07/30 06:52:24;;;;;;;9.00;7.62;;;;;;;19.50;81.78;96952.31;1851765;77;25644;-76
2022/07/30 06:54:50;;;;;;;9.03;8.13;;;;;;;19.58;81.79;96959.13;1856496;77;25671;-76
2022/07/30 06:57:17;;;;;;;10.58;8.20;;;;;;;19.64;81.79;96958.84;1856625;77;26049;-76
2022/07/30 06:59:44;;;;;;;9.63;7.87;;;;;;;19.70;81.82;96958.25;1856627;76;25802;-75
2022/07/30 07:02:10;;;;;;;10.48;8.25;;;;;;;19.72;81.55;96960.98;1856334;77;28024;-75
2022/07/30 07:04:37;;;;;;;9.95;8.70;;;;;;;19.78;81.63;96956.32;1856550;77;25710;-76
2022/07/30 07:07:03;;;;;;;9.85;8.13;;;;;;;19.86;81.56;96952.16;1856338;77;25677;-76
2022/07/30 07:09:30;;;;;;;8.70;7.80;;;;;;;19.93;81.50;96954.03;1856459;77;25971;-77
2022/07/30 07:11:56;;;;;;;9.88;8.73;;;;;;;19.96;81.34;96946.08;1833106;77;25684;-77
2022/07/30 07:14:23;;;;;;;10.72;8.30;;;;;;;20.00;81.32;96946.34;1829524;78;28694;-75
2022/07/30 07:16:49;;;;;;;11.38;8.43;;;;;;;20.03;81.19;96944.41;1829477;77;26313;-76
2022/07/30 07:19:16;;;;;;;9.63;8.65;;;;;;;20.06;81.30;96942.45;1829483;77;25692;-76
2022/07/30 07:21:43;;;;;;;10.08;9.08;;;;;;;20.09;81.38;96949.56;1829588;77;26016;-76
2022/07/30 07:24:09;;;;;;;9.00;8.20;;;;;;;20.14;81.44;96954.21;1829487;78;25586;-76
2022/07/30 07:26:36;;;;;;;9.78;8.10;;;;;;;20.16;81.36;96945.72;1829570;78;27396;-76
2022/07/30 07:29:02;;;;;;;9.25;8.13;;;;;;;20.17;81.33;96943.21;1829472;77;25617;-76
2022/07/30 07:31:29;;;;;;;10.38;8.23;;;;;;;20.17;81.31;96941.84;1829628;78;25728;-76
2022/07/30 07:33:58;;;;;;;8.75;7.20;;;;;;;20.18;81.27;96940.19;1828508;78;25199;-76
2022/07/30 07:36:25;;;;;;;10.68;8.30;;;;;;;20.20;81.18;96937.99;1829688;77;25934;-77
2022/07/30 07:38:51;;;;;;;11.97;7.67;;;;;;;20.20;81.11;96928.41;1829690;76;27383;-77
2022/07/30 07:41:18;;;;;;;8.15;7.00;;;;;;;20.22;81.18;96926.75;1829418;77;25716;-76
2022/07/30 07:43:44;;;;;;;8.98;7.08;;;;;;;20.24;81.25;96926.73;1829643;77;25225;-76
2022/07/30 07:46:15;;;;;;;11.10;7.40;;;;;;;20.23;81.03;96925.65;1829563;77;26687;-76
2022/07/30 07:48:39;;;;;;;9.80;8.18;;;;;;;20.21;81.02;96921.82;1822147;78;25641;-76
2022/07/30 07:51:06;;;;;;;10.13;8.43;;;;;;;20.23;81.23;96916.88;1830002;77;28017;-76
2022/07/30 07:53:32;;;;;;;8.48;7.60;;;;;;;20.27;81.27;96917.95;1841245;77;25697;-76
2022/07/30 07:55:59;;;;;;;8.45;7.65;;;;;;;20.32;81.37;96917.90;1841739;77;25378;-77
2022/07/30 07:58:26;;;;;;;9.10;7.00;;;;;;;20.36;81.39;96908.59;1841539;77;26085;-76
2022/07/30 08:00:53;;;;;;;7.95;7.17;;;;;;;20.37;81.28;96906.95;1841669;77;25712;-76
2022/07/30 08:03:19;;;;;;;7.87;7.08;;;;;;;20.41;81.28;96903.88;1841537;77;27340;-75
2022/07/30 08:05:46;;;;;;;8.33;7.53;;;;;;;20.46;81.28;96905.22;1841452;77;25617;-76
2022/07/30 08:08:12;;;;;;;7.78;7.08;;;;;;;20.49;81.24;96896.43;1841611;77;25672;-76
2022/07/30 08:10:39;;;;;;;10.90;9.68;;;;;;;20.52;80.96;96899.70;1842089;76;26730;-76
2022/07/30 08:13:06;;;;;;;9.98;9.05;;;;;;;20.52;80.91;96891.48;1845186;77;25631;-76
2022/07/30 08:15:32;;;;;;;11.30;9.40;;;;;;;20.56;80.97;96885.67;1845313;77;27651;-77
2022/07/30 08:17:59;;;;;;;15.25;10.88;;;;;;;20.60;81.08;96888.11;1845110;77;25678;-76
2022/07/30 08:20:26;;;;;;;14.30;12.07;;;;;;;20.64;81.12;96876.84;1838996;77;25677;-75
2022/07/30 08:22:52;;;;;;;11.33;10.20;;;;;;;20.71;81.12;96882.80;1836024;77;25972;-76
2022/07/30 08:25:19;;;;;;;13.88;10.18;;;;;;;20.78;81.06;96880.52;1838150;77;26567;-77
2022/07/30 08:27:45;;;;;;;11.97;8.40;;;;;;;20.88;81.01;96886.48;1845217;77;27353;-77
2022/07/30 08:30:12;;;;;;;9.05;7.37;;;;;;;20.97;80.69;96875.14;1845274;77;25655;-76
2022/07/30 08:32:39;;;;;;;7.65;6.78;;;;;;;21.06;80.10;96872.83;1845319;77;25771;-77
2022/07/30 08:35:07;;;;;;;8.08;6.10;;;;;;;21.16;79.85;96874.09;1845502;77;25972;-76
2022/07/30 08:37:34;;;;;;;9.20;7.62;;;;;;;21.27;79.29;96878.11;1845330;77;25680;-76
2022/07/30 08:40:02;;;;;;;9.73;7.65;;;;;;;21.34;79.02;96870.36;1845380;77;27355;-77
2022/07/30 08:42:30;;;;;;;9.43;7.25;;;;;;;21.48;78.56;96876.23;1845500;77;25668;-78
2022/07/30 08:44:57;;;;;;;9.68;6.53;;;;;;;21.48;78.56;96876.23;1845538;77;25724;-76
2022/07/30 08:47:27;;;;;;;8.63;5.60;;;;;;;21.54;78.39;96881.08;1845534;77;26045;-76
2022/07/30 08:50:00;;;;;;;6.92;6.17;;;;;;;21.47;78.19;96863.61;1845150;77;26703;-76
2022/07/30 08:52:23;;;;;;;7.00;6.37;;;;;;;21.67;77.99;96888.60;1841186;77;27431;-77
2022/07/30 08:54:50;;;;;;;10.98;6.53;;;;;;;21.70;77.68;96870.17;1845381;77;25708;-77
2022/07/30 08:57:17;;;;;;;7.75;6.72;;;;;;;21.75;77.37;96867.34;1845492;77;25739;-77
2022/07/30 08:59:44;;;;;;;7.22;6.53;;;;;;;21.82;77.68;96856.81;1845359;77;26874;-76
2022/07/30 09:02:11;;;;;;;6.78;6.15;;;;;;;21.82;77.68;96856.81;1845436;77;26097;-78
2022/07/30 09:04:37;;;;;;;8.20;6.83;;;;;;;21.88;77.52;96847.92;1845385;77;27320;-77
2022/07/30 09:07:04;;;;;;;6.65;6.05;;;;;;;21.88;77.52;96847.92;1845405;77;25414;-77
2022/07/30 09:09:30;;;;;;;6.92;6.33;;;;;;;21.83;76.38;96846.09;1845326;77;25684;-77
2022/07/30 09:11:57;;;;;;;8.13;6.05;;;;;;;21.70;77.02;96819.36;1845291;77;26200;-77
2022/07/30 09:14:23;;;;;;;9.10;6.75;;;;;;;21.87;76.94;96842.98;1819587;77;25651;-76
2022/07/30 09:16:58;;;;;;;8.03;6.28;;;;;;;21.84;77.07;96828.49;1845455;77;27433;-78
2022/07/30 09:19:25;;;;;;;8.20;6.40;;;;;;;21.82;75.98;96829.90;1795400;79;25687;-77
2022/07/30 09:21:58;;;;;;;7.10;6.22;;;;;;;21.82;75.98;96829.90;1845218;77;25696;-79
2022/07/30 09:24:26;;;;;;;7.95;6.47;;;;;;;21.96;76.07;96850.58;1779814;80;26026;-77
2022/07/30 09:27:03;;;;;;;8.28;6.40;;;;;;;22.08;76.20;96853.72;1780064;80;25738;-77
2022/07/30 09:29:31;;;;;;;7.50;6.47;;;;;;;22.08;76.20;96853.72;1780263;80;27343;-78
2022/07/30 09:32:06;;;;;;;6.92;6.15;;;;;;;22.12;75.52;96847.88;1780047;80;25827;-77
2022/07/30 09:34:35;;;;;;;7.58;6.83;;;;;;;22.22;75.27;96849.90;1780181;80;26338;-77
2022/07/30 09:37:10;;;;;;;7.25;6.42;;;;;;;22.30;75.15;96847.05;1754134;80;26108;-77
2022/07/30 09:39:40;;;;;;;7.67;6.97;;;;;;;22.37;75.11;96855.72;1720614;83;25365;-78
2022/07/30 09:42:20;;;;;;;9.90;7.45;;;;;;;22.44;74.90;96857.54;1712838;83;27446;-77
2022/07/30 09:44:48;;;;;;;11.20;7.53;;;;;;;22.64;74.33;96856.36;1600277;89;25780;-79
2022/07/30 09:47:35;;;;;;;6.90;6.30;;;;;;;22.64;74.33;96856.36;1600734;89;25864;-78
2022/07/30 09:50:11;;;;;;;8.28;6.55;;;;;;;22.70;74.43;96858.48;1600592;89;26006;-77
2022/07/30 09:52:41;;;;;;;6.20;5.42;;;;;;;22.82;74.00;96857.47;1600605;89;25959;-77
2022/07/30 09:55:09;;;;;;;8.55;5.67;;;;;;;22.92;73.49;96852.59;1600655;89;27457;-78
2022/07/30 09:57:56;;;;;;;12.45;9.93;;;;;;;23.05;73.29;96855.10;1600634;89;25873;-78
2022/07/30 10:00:26;;;;;;;5.85;5.20;;;;;;;23.15;72.79;96851.33;1574237;91;25853;-77
2022/07/30 10:02:54;;;;;;;5.30;4.90;;;;;;;23.23;72.28;96851.42;1555667;92;26901;-78
2022/07/30 10:05:21;;;;;;;9.63;5.72;;;;;;;23.33;72.41;96847.09;1530785;93;25953;-78
2022/07/30 10:07:57;;;;;;;6.37;5.60;;;;;;;23.45;71.70;96841.06;1540015;93;27599;-77
2022/07/30 10:10:27;;;;;;;5.70;5.10;;;;;;;23.52;71.39;96842.89;1525160;94;25967;-78
2022/07/30 10:13:06;;;;;;;5.87;5.37;;;;;;;23.61;70.96;96845.73;1525168;93;25930;-79
2022/07/30 10:15:35;;;;;;;6.22;5.62;;;;;;;23.69;70.76;96828.45;1525319;94;26232;-77
2022/07/30 10:18:06;;;;;;;5.90;5.40;;;;;;;23.83;70.51;96827.86;1525336;94;25354;-75
2022/07/30 10:20:34;;;;;;;5.47;5.08;;;;;;;23.94;70.70;96825.13;1530757;92;26842;-74
2022/07/30 10:23:01;;;;;;;6.10;5.55;;;;;;;24.00;70.63;96825.28;1535805;92;25895;-75
2022/07/30 10:25:28;;;;;;;8.00;5.00;;;;;;;24.08;70.39;96828.41;1530279;92;25821;-75
2022/07/30 10:27:55;;;;;;;8.63;5.45;;;;;;;24.11;70.08;96823.66;1528783;93;25954;-75
2022/07/30 10:30:21;;;;;;;5.50;5.00;;;;;;;24.16;69.83;96824.89;1528727;92;25981;-76
2022/07/30 10:32:48;;;;;;;5.75;4.95;;;;;;;24.29;70.24;96814.40;1528623;93;27443;-76
2022/07/30 10:35:14;;;;;;;5.90;4.75;;;;;;;24.53;70.27;96820.41;1528763;93;25775;-76
2022/07/30 10:37:46;;;;;;;5.80;4.90;;;;;;;24.72;69.19;96814.13;1565897;90;25369;-75
2022/07/30 10:40:30;;;;;;;5.53;5.03;;;;;;;24.85;68.89;96804.69;1569837;89;26023;-75
2022/07/30 10:43:37;;;;;;;9.20;5.20;;;;;;;25.07;68.83;96803.27;1652501;86;25787;-75
2022/07/30 10:46:34;;;;;;;5.70;5.10;;;;;;;25.26;68.47;96798.29;1653002;86;27386;-76
2022/07/30 10:49:10;;;;;;;5.28;4.78;;;;;;;25.49;68.00;96794.28;1652936;86;25933;-76
2022/07/30 10:51:48;;;;;;;4.55;4.15;;;;;;;25.75;67.34;96788.02;1667008;82;25963;-75
2022/07/30 10:54:41;;;;;;;4.60;4.20;;;;;;;25.91;66.16;96793.33;1723185;82;25975;-75
2022/07/30 10:57:20;;;;;;;5.22;4.42;;;;;;;26.11;64.79;96789.90;1732786;82;25800;-76
2022/07/30 10:59:58;;;;;;;4.72;3.90;;;;;;;26.13;63.54;96786.24;1673732;85;27660;-76
2022/07/30 11:02:30;;;;;;;5.12;4.62;;;;;;;26.25;64.31;96780.61;1639892;87;25910;-76
2022/07/30 11:05:16;;;;;;;;;;;;;;;26.44;64.41;96783.89;1642686;87;25855;-76
2022/07/30 11:07:44;;;;;;;6.00;4.30;;;;;;;26.53;62.31;96779.14;1657052;85;25938;-76
2022/07/30 11:10:39;;;;;;;5.12;4.47;;;;;;;26.54;63.08;96784.36;1621715;88;25898;-76
2022/07/30 11:13:07;;;;;;;6.05;5.08;;;;;;;26.57;62.86;96780.09;1608171;88;28279;-76
2022/07/30 11:15:55;;;;;;;4.60;4.20;;;;;;;26.67;62.50;96777.00;1557065;92;25869;-76
2022/07/30 11:18:24;;;;;;;6.12;4.10;;;;;;;26.74;62.14;96771.75;1561648;91;25815;-76
2022/07/30 11:21:15;;;;;;;5.00;4.50;;;;;;;26.70;60.60;96769.39;1547422;92;25994;-76
2022/07/30 11:23:44;;;;;;;7.33;5.03;;;;;;;26.72;61.52;96764.91;1557162;91;25861;-76
2022/07/30 11:26:31;;;;;;;5.67;4.65;;;;;;;26.73;61.76;96753.52;1561675;90;27537;-77
2022/07/30 11:28:58;;;;;;;6.25;4.28;;;;;;;26.72;61.62;96753.27;1547386;92;25541;-76
2022/07/30 11:31:34;;;;;;;4.90;4.12;;;;;;;26.77;60.70;96754.48;1557161;92;25907;-77
2022/07/30 11:34:24;;;;;;;4.60;4.20;;;;;;;26.83;60.29;96751.76;1581906;88;25983;-76
2022/07/30 11:37:04;;;;;;;4.47;4.08;;;;;;;26.89;59.93;96747.68;1612163;88;25835;-76
2022/07/30 11:39:56;;;;;;;4.30;3.90;;;;;;;26.92;59.91;96742.62;1589162;90;27507;-75
2022/07/30 11:42:33;;;;;;;5.40;4.58;;;;;;;26.94;59.56;96739.77;1589517;90;26009;-76
2022/07/30 11:45:22;;;;;;;6.10;5.40;;;;;;;27.00;59.72;96742.61;1589132;90;25869;-76